Flag for USA

Past Weather in 41°44'52.4"N, 88°19'57.0"W, USA — Yesterday and Last 2 Weeks

Currently: 46 °F. Clear. (Weather station: Dupage Airport, USA). See more current weather

Past Weather in 41°44'52.4"N, 88°19'57.0"W — Graph

°F

41°44'52.4"N, 88°19'57.0"W Temperature Yesterday

Maximum temperature yesterday: 60 °F (at 2:52 pm)
Minimum temperature yesterday: 43 °F (at 5:52 am)
Average temperature yesterday: 51 °F

High & Low Weather Summary for the Past Weeks

 TemperatureHumidityPressure
High93 °F (Sep 20, 3:52 pm)97% (Sep 15, 2:38 am)30.30 "Hg (Sep 15, 2:38 am)
Low43 °F (Sep 27, 5:52 am)40% (Sep 21, 4:52 pm)29.70 "Hg (Sep 25, 3:52 am)
Average64 °F72%29.99 "Hg
* Reported Sep 12 11:35 pm — Sep 27 11:52 pm, 41°44'52.4"N, 88°19'57.0"W. Weather by CustomWeather, © 2022

Note: Actual official high and low records may vary slightly from our data, if they occured in-between our weather recording intervals... More about our weather records

41°44'52.4"N, 88°19'57.0"W Weather History for the Previous 24 Hours

Scroll right to see more
 ConditionsComfort  
Time TempWeatherWind HumidityBarometerVisibility
11:52 pm
Tue, Sep 27
46 °FClear.6 mph73%30.30 "Hg10 mi
10:52 pm49 °FPassing clouds.7 mph69%30.28 "Hg10 mi
9:52 pm51 °FOvercast.8 mph63%30.27 "Hg10 mi
8:52 pm50 °FPassing clouds.9 mph63%30.26 "Hg10 mi
7:52 pm48 °FPassing clouds.5 mph71%30.24 "Hg10 mi
5:52 pm56 °FScattered clouds.14 mph49%30.19 "Hg10 mi
4:52 pm57 °FBroken clouds.13 mph46%30.18 "Hg10 mi
3:52 pm59 °FPartly sunny.16 mph42%30.16 "Hg10 mi
2:52 pm60 °FPassing clouds.15 mph42%30.14 "Hg10 mi
1:52 pm59 °FSunny.15 mph42%30.13 "Hg10 mi
12:52 pm57 °FPassing clouds.18 mph46%30.13 "Hg10 mi
11:52 am56 °FPartly sunny.13 mph49%30.11 "Hg10 mi
10:52 am55 °FScattered clouds.17 mph53%30.09 "Hg10 mi
9:52 am53 °FSunny.14 mph64%30.08 "Hg10 mi
8:52 am50 °FSunny.9 mph68%30.06 "Hg10 mi
7:52 am44 °FSunny.8 mph82%30.06 "Hg10 mi
6:52 am44 °FSunny.7 mph82%30.04 "Hg10 mi
5:52 am43 °FClear.6 mph82%30.01 "Hg10 mi
4:52 am44 °FClear.6 mph79%29.99 "Hg10 mi
3:52 am45 °FClear.5 mph76%29.98 "Hg10 mi
2:52 am46 °FClear.6 mph77%29.97 "Hg10 mi
1:52 am49 °FClear.9 mph71%29.98 "Hg10 mi
Weather by CustomWeather, © 2022

See weather overview